createdAt,value
2023-05-14T00:00:42.198Z,10.67
2023-05-14T00:01:42.035Z,10.69
2023-05-14T00:02:42.233Z,10.74
2023-05-14T00:03:42.059Z,10.76
2023-05-14T00:04:42.020Z,10.79
2023-05-14T00:05:41.995Z,10.79
2023-05-14T00:06:41.972Z,10.76
2023-05-14T00:07:42.346Z,10.72
2023-05-14T00:08:41.994Z,10.71
2023-05-14T00:09:41.937Z,10.68
2023-05-14T00:10:41.957Z,10.67
2023-05-14T00:11:41.909Z,10.64
2023-05-14T00:12:41.888Z,10.63
2023-05-14T00:13:41.904Z,10.61
2023-05-14T00:14:41.879Z,10.59
2023-05-14T00:15:41.911Z,10.56
2023-05-14T00:16:41.876Z,10.51
2023-05-14T00:17:41.916Z,10.48
2023-05-14T00:18:41.961Z,10.44
2023-05-14T00:19:41.854Z,10.44
2023-05-14T00:20:41.832Z,10.40
2023-05-14T00:21:41.839Z,10.38
2023-05-14T00:22:41.813Z,10.38
2023-05-14T00:23:41.819Z,10.40
2023-05-14T00:24:41.788Z,10.38
2023-05-14T00:25:41.788Z,10.40
2023-05-14T00:26:41.789Z,10.40
2023-05-14T00:27:41.801Z,10.41
2023-05-14T00:28:41.771Z,10.42
2023-05-14T00:29:41.733Z,10.41
2023-05-14T00:30:41.760Z,10.37
2023-05-14T00:31:41.809Z,10.34
2023-05-14T00:32:41.736Z,10.34
2023-05-14T00:33:41.674Z,10.31
2023-05-14T00:34:41.675Z,10.26
2023-05-14T00:35:41.690Z,10.22
2023-05-14T00:36:41.692Z,10.20
2023-05-14T00:37:41.686Z,10.19
2023-05-14T00:38:41.652Z,10.17
2023-05-14T00:39:41.641Z,10.15
2023-05-14T00:40:41.627Z,10.13
2023-05-14T00:41:41.646Z,10.12
2023-05-14T00:42:41.678Z,10.12
2023-05-14T00:43:41.609Z,10.10
2023-05-14T00:44:41.620Z,10.12
2023-05-14T00:45:41.557Z,10.12
2023-05-14T00:46:41.654Z,10.09
2023-05-14T00:47:41.599Z,10.05
2023-05-14T00:48:41.560Z,10.05
2023-05-14T00:49:41.507Z,10.07
2023-05-14T00:50:41.535Z,10.04
2023-05-14T00:51:41.506Z,10.04
2023-05-14T00:52:41.545Z,9.99
2023-05-14T00:53:41.514Z,9.98
2023-05-14T00:54:41.519Z,9.97
2023-05-14T00:55:41.522Z,9.95
2023-05-14T00:56:41.478Z,9.97
2023-05-14T00:57:41.438Z,9.97
2023-05-14T00:58:41.491Z,9.92
2023-05-14T00:59:41.427Z,9.91
2023-05-14T01:00:41.438Z,9.89
2023-05-14T01:01:41.418Z,9.89
2023-05-14T01:02:41.463Z,9.87
2023-05-14T01:03:41.474Z,9.86
2023-05-14T01:04:41.365Z,9.87
2023-05-14T01:05:41.349Z,9.87
2023-05-14T01:06:41.362Z,9.83
2023-05-14T01:07:41.338Z,9.82
2023-05-14T01:08:41.359Z,9.77
2023-05-14T01:09:41.333Z,9.77
2023-05-14T01:10:41.323Z,9.76
2023-05-14T01:11:41.330Z,9.74
2023-05-14T01:12:41.315Z,9.74
2023-05-14T01:13:41.289Z,9.74
2023-05-14T01:14:41.427Z,9.76
2023-05-14T01:15:41.260Z,9.76
2023-05-14T01:16:41.282Z,9.74
2023-05-14T01:17:41.287Z,9.74
2023-05-14T01:18:41.235Z,9.73
2023-05-14T01:19:41.199Z,9.72
2023-05-14T01:20:41.228Z,9.69
2023-05-14T01:21:41.240Z,9.72
2023-05-14T01:22:41.191Z,9.68
2023-05-14T01:23:41.182Z,9.64
2023-05-14T01:24:41.172Z,9.62
2023-05-14T01:25:41.171Z,9.64
2023-05-14T01:26:41.184Z,9.62
2023-05-14T01:27:41.126Z,9.61
2023-05-14T01:28:41.132Z,9.62
2023-05-14T01:29:41.154Z,9.58
2023-05-14T01:30:41.108Z,9.59
2023-05-14T01:31:41.191Z,9.62
2023-05-14T01:32:41.161Z,9.61
2023-05-14T01:33:41.111Z,9.61
2023-05-14T01:34:41.069Z,9.61
2023-05-14T01:35:41.050Z,9.58
2023-05-14T01:36:41.090Z,9.58
2023-05-14T01:37:41.034Z,9.56
2023-05-14T01:38:41.030Z,9.55
2023-05-14T01:39:41.028Z,9.55
2023-05-14T01:40:41.065Z,9.54
2023-05-14T01:41:41.067Z,9.51
2023-05-14T01:42:40.994Z,9.51
2023-05-14T01:43:41.075Z,9.48
2023-05-14T01:44:40.960Z,9.43
2023-05-14T01:45:40.989Z,9.41
2023-05-14T01:46:41.099Z,9.41
2023-05-14T01:47:40.994Z,9.41
2023-05-14T01:48:40.970Z,9.37
2023-05-14T01:49:40.970Z,9.37
2023-05-14T01:50:40.913Z,9.37
2023-05-14T01:51:40.922Z,9.39
2023-05-14T01:52:40.897Z,9.40
2023-05-14T01:53:40.859Z,9.40
2023-05-14T01:54:40.882Z,9.37
2023-05-14T01:55:40.847Z,9.34
2023-05-14T01:56:40.843Z,9.28
2023-05-14T01:57:40.825Z,9.26
2023-05-14T01:58:40.867Z,9.23
2023-05-14T01:59:40.852Z,9.23
2023-05-14T02:00:40.783Z,9.23
2023-05-14T02:01:40.832Z,9.25
2023-05-14T02:02:40.870Z,9.23
2023-05-14T02:03:40.845Z,9.22
2023-05-14T02:04:40.796Z,9.25
2023-05-14T02:05:40.729Z,9.23
2023-05-14T02:06:40.740Z,9.23
2023-05-14T02:07:40.727Z,9.21
2023-05-14T02:08:40.724Z,9.22
2023-05-14T02:09:40.720Z,9.21
2023-05-14T02:10:40.712Z,9.18
2023-05-14T02:11:40.702Z,9.16
2023-05-14T02:12:40.775Z,9.16
2023-05-14T02:13:40.657Z,9.14
2023-05-14T02:14:40.685Z,9.16
2023-05-14T02:15:40.687Z,9.18
2023-05-14T02:16:40.629Z,9.19
2023-05-14T02:17:40.647Z,9.19
2023-05-14T02:18:40.668Z,9.16
2023-05-14T02:19:40.628Z,9.13
2023-05-14T02:20:40.594Z,9.10
2023-05-14T02:21:40.581Z,9.06
2023-05-14T02:22:40.576Z,9.08
2023-05-14T02:23:42.217Z,9.06
2023-05-14T02:24:40.626Z,9.04
2023-05-14T02:25:40.585Z,9.06
2023-05-14T02:26:40.558Z,9.02
2023-05-14T02:27:40.534Z,9.02
2023-05-14T02:28:40.530Z,8.99
2023-05-14T02:29:40.517Z,8.97
2023-05-14T02:30:40.523Z,8.97
2023-05-14T02:31:40.546Z,8.97
2023-05-14T02:32:40.543Z,9.00
2023-05-14T02:33:40.493Z,9.03
2023-05-14T02:34:40.454Z,9.06
2023-05-14T02:35:40.437Z,9.08
2023-05-14T02:36:40.478Z,9.03
2023-05-14T02:37:40.465Z,9.02
2023-05-14T02:38:40.439Z,8.97
2023-05-14T02:39:40.450Z,8.94
2023-05-14T02:40:40.420Z,8.88
2023-05-14T02:41:40.370Z,8.82
2023-05-14T02:42:40.391Z,8.81
2023-05-14T02:43:40.383Z,8.79
2023-05-14T02:44:40.351Z,8.78
2023-05-14T02:45:40.347Z,8.79
2023-05-14T02:46:40.428Z,8.78
2023-05-14T02:47:40.382Z,8.76
2023-05-14T02:48:40.328Z,8.74
2023-05-14T02:49:40.262Z,8.73
2023-05-14T02:50:40.348Z,8.71
2023-05-14T02:51:40.309Z,8.70
2023-05-14T02:52:40.865Z,8.70
2023-05-14T02:53:40.254Z,8.69
2023-05-14T02:54:40.262Z,8.67
2023-05-14T02:55:40.261Z,8.69
2023-05-14T02:56:40.238Z,8.67
2023-05-14T02:57:40.214Z,8.69
2023-05-14T02:58:40.224Z,8.67
2023-05-14T02:59:40.390Z,8.73
2023-05-14T03:00:40.150Z,8.74
2023-05-14T03:01:40.109Z,8.78
2023-05-14T03:02:40.276Z,8.76
2023-05-14T03:03:40.138Z,8.74
2023-05-14T03:04:40.766Z,8.74
2023-05-14T03:05:40.081Z,8.73
2023-05-14T03:06:40.081Z,8.73
2023-05-14T03:07:40.085Z,8.74
2023-05-14T03:08:40.103Z,8.71
2023-05-14T03:09:40.065Z,8.73
2023-05-14T03:10:40.015Z,8.71
2023-05-14T03:11:40.034Z,8.73
2023-05-14T03:12:40.055Z,8.76
2023-05-14T03:13:40.025Z,8.74
2023-05-14T03:14:39.997Z,8.70
2023-05-14T03:15:39.975Z,8.69
2023-05-14T03:16:40.014Z,8.70
2023-05-14T03:17:39.990Z,8.69
2023-05-14T03:18:39.978Z,8.70
2023-05-14T03:19:39.940Z,8.69
2023-05-14T03:20:39.933Z,8.67
2023-05-14T03:21:39.940Z,8.69
2023-05-14T03:22:39.922Z,8.64
2023-05-14T03:23:39.885Z,8.64
2023-05-14T03:24:39.938Z,8.64
2023-05-14T03:25:39.928Z,8.63
2023-05-14T03:26:39.872Z,8.61
2023-05-14T03:27:39.911Z,8.63
2023-05-14T03:28:39.858Z,8.61
2023-05-14T03:29:39.875Z,8.63
2023-05-14T03:30:39.885Z,8.63
2023-05-14T03:31:39.800Z,8.66
2023-05-14T03:32:39.996Z,8.66
2023-05-14T03:33:39.798Z,8.63
2023-05-14T03:34:39.787Z,8.64
2023-05-14T03:35:39.788Z,8.66
2023-05-14T03:36:39.770Z,8.67
2023-05-14T03:37:39.731Z,8.66
2023-05-14T03:38:39.776Z,8.69
2023-05-14T03:39:39.772Z,8.69
2023-05-14T03:40:39.717Z,8.67
2023-05-14T03:41:39.730Z,8.67
2023-05-14T03:42:39.814Z,8.67
2023-05-14T03:43:39.737Z,8.67
2023-05-14T03:44:39.695Z,8.69
2023-05-14T03:45:39.665Z,8.70
2023-05-14T03:46:39.658Z,8.70
2023-05-14T03:47:39.709Z,8.71
2023-05-14T03:48:39.699Z,8.71
2023-05-14T03:49:40.364Z,8.71
2023-05-14T03:50:39.661Z,8.71
2023-05-14T03:51:39.580Z,8.73
2023-05-14T03:52:39.611Z,8.73
2023-05-14T03:53:39.597Z,8.73
2023-05-14T03:54:39.574Z,8.73
2023-05-14T03:55:39.545Z,8.71
2023-05-14T03:56:39.606Z,8.70
2023-05-14T03:57:39.528Z,8.70
2023-05-14T03:58:39.558Z,8.66
2023-05-14T03:59:39.568Z,8.67
2023-05-14T04:00:39.549Z,8.67
2023-05-14T04:01:39.489Z,8.66
2023-05-14T04:02:39.678Z,8.67
2023-05-14T04:03:39.711Z,8.69
2023-05-14T04:04:39.550Z,8.70
2023-05-14T04:05:39.446Z,8.69
2023-05-14T04:06:39.449Z,8.73
2023-05-14T04:07:39.409Z,8.74
2023-05-14T04:08:39.440Z,8.74
2023-05-14T04:09:39.393Z,8.78
2023-05-14T04:10:39.435Z,8.76
2023-05-14T04:11:39.390Z,8.78
2023-05-14T04:12:39.377Z,8.84
2023-05-14T04:13:39.397Z,8.84
2023-05-14T04:14:39.375Z,8.88
2023-05-14T04:15:39.433Z,8.89
2023-05-14T04:16:39.405Z,8.91
2023-05-14T04:17:39.342Z,8.94
2023-05-14T04:18:39.362Z,8.97
2023-05-14T04:19:39.354Z,8.97
2023-05-14T04:20:39.349Z,8.99
2023-05-14T04:21:39.284Z,9.00
2023-05-14T04:22:39.278Z,8.99
2023-05-14T04:23:39.254Z,9.02
2023-05-14T04:24:39.272Z,9.04
2023-05-14T04:25:39.275Z,9.06
2023-05-14T04:26:39.249Z,9.08
2023-05-14T04:27:39.232Z,9.11
2023-05-14T04:28:39.226Z,9.11
2023-05-14T04:29:39.258Z,9.13
2023-05-14T04:30:39.171Z,9.14
2023-05-14T04:31:39.243Z,9.18
2023-05-14T04:32:39.260Z,9.16
2023-05-14T04:33:39.171Z,9.19
2023-05-14T04:34:39.133Z,9.21
2023-05-14T04:35:39.203Z,9.22
2023-05-14T04:36:39.123Z,9.21
2023-05-14T04:37:39.141Z,9.23
2023-05-14T04:38:39.103Z,9.22
2023-05-14T04:39:39.088Z,9.21
2023-05-14T04:40:39.124Z,9.21
2023-05-14T04:41:39.115Z,9.19
2023-05-14T04:42:39.069Z,9.19
2023-05-14T04:43:39.094Z,9.18
2023-05-14T04:44:39.131Z,9.21
2023-05-14T04:45:39.142Z,9.19
2023-05-14T04:46:39.048Z,9.19
2023-05-14T04:47:39.100Z,9.19
2023-05-14T04:48:38.979Z,9.21
2023-05-14T04:49:39.051Z,9.21
2023-05-14T04:50:39.011Z,9.22
2023-05-14T04:51:39.030Z,9.22
2023-05-14T04:52:38.944Z,9.23
2023-05-14T04:53:38.938Z,9.25
2023-05-14T04:54:38.995Z,9.28
2023-05-14T04:55:38.958Z,9.28
2023-05-14T04:56:38.972Z,9.29
2023-05-14T04:57:38.906Z,9.31
2023-05-14T04:58:38.932Z,9.32
2023-05-14T04:59:38.885Z,9.34
2023-05-14T05:00:38.902Z,9.36
2023-05-14T05:01:38.907Z,9.37
2023-05-14T05:02:38.955Z,9.39
2023-05-14T05:03:38.873Z,9.37
2023-05-14T05:04:38.833Z,9.41
2023-05-14T05:05:38.826Z,9.43
2023-05-14T05:06:38.803Z,9.46
2023-05-14T05:07:38.832Z,9.48
2023-05-14T05:08:38.800Z,9.48
2023-05-14T05:09:38.825Z,9.50
2023-05-14T05:10:38.809Z,9.54
2023-05-14T05:11:38.818Z,9.55
2023-05-14T05:12:38.777Z,9.58
2023-05-14T05:13:38.785Z,9.59
2023-05-14T05:14:38.720Z,9.59
2023-05-14T05:15:38.757Z,9.62
2023-05-14T05:16:38.726Z,9.62
2023-05-14T05:17:38.749Z,9.65
2023-05-14T05:18:38.740Z,9.68
2023-05-14T05:19:43.565Z,9.69
2023-05-14T05:20:38.677Z,9.73
2023-05-14T05:21:38.698Z,9.74
2023-05-14T05:22:38.653Z,9.79
2023-05-14T05:23:38.690Z,9.80
2023-05-14T05:24:38.645Z,9.83
2023-05-14T05:25:38.655Z,9.84
2023-05-14T05:26:38.634Z,9.91
2023-05-14T05:27:38.630Z,9.92
2023-05-14T05:28:38.630Z,9.95
2023-05-14T05:29:38.626Z,9.98
2023-05-14T05:30:38.598Z,10.01
2023-05-14T05:31:38.617Z,10.05
2023-05-14T05:32:38.630Z,10.07
2023-05-14T05:33:38.556Z,10.09
2023-05-14T05:34:38.528Z,10.13
2023-05-14T05:35:38.573Z,10.16
2023-05-14T05:36:38.514Z,10.20
2023-05-14T05:37:38.552Z,10.25
2023-05-14T05:38:38.546Z,10.30
2023-05-14T05:39:38.546Z,10.35
2023-05-14T05:40:38.488Z,10.40
2023-05-14T05:41:38.492Z,10.42
2023-05-14T05:42:38.459Z,10.51
2023-05-14T05:43:38.488Z,10.56
2023-05-14T05:44:38.447Z,10.61
2023-05-14T05:45:38.444Z,10.64
2023-05-14T05:46:38.469Z,10.69
2023-05-14T05:47:38.429Z,10.74
2023-05-14T05:48:38.387Z,10.78
2023-05-14T05:49:38.393Z,10.84
2023-05-14T05:50:38.372Z,10.89
2023-05-14T05:51:38.371Z,10.94
2023-05-14T05:52:38.355Z,11.00
2023-05-14T05:53:38.374Z,11.05
2023-05-14T05:54:38.340Z,11.10
2023-05-14T05:55:38.333Z,11.12
2023-05-14T05:56:38.301Z,11.15
2023-05-14T05:57:38.273Z,11.22
2023-05-14T05:58:38.338Z,11.26
2023-05-14T05:59:38.304Z,11.29
2023-05-14T06:00:38.250Z,11.32
2023-05-14T06:01:38.297Z,11.36
2023-05-14T06:02:38.343Z,11.43
2023-05-14T06:03:38.240Z,11.51
2023-05-14T06:04:38.244Z,11.57
2023-05-14T06:05:38.303Z,11.63
2023-05-14T06:06:38.242Z,11.66
2023-05-14T06:07:38.280Z,11.69
2023-05-14T06:08:38.208Z,11.73
2023-05-14T06:09:38.190Z,11.77
2023-05-14T06:10:38.153Z,11.77
2023-05-14T06:11:38.154Z,11.80
2023-05-14T06:12:38.153Z,11.84
2023-05-14T06:13:38.214Z,11.87
2023-05-14T06:14:38.236Z,11.94
2023-05-14T06:15:38.210Z,11.99
2023-05-14T06:16:38.160Z,12.03
2023-05-14T06:17:38.154Z,12.09
2023-05-14T06:18:38.168Z,12.13
2023-05-14T06:19:38.086Z,12.17
2023-05-14T06:20:38.074Z,12.18
2023-05-14T06:21:38.063Z,12.22
2023-05-14T06:22:38.042Z,12.27
2023-05-14T06:23:38.110Z,12.32
2023-05-14T06:24:38.075Z,12.37
2023-05-14T06:25:38.021Z,12.45
2023-05-14T06:26:38.002Z,12.54
2023-05-14T06:27:38.006Z,12.62
2023-05-14T06:28:37.962Z,12.68
2023-05-14T06:29:38.017Z,12.75
2023-05-14T06:30:37.950Z,12.79
2023-05-14T06:31:37.982Z,12.83
2023-05-14T06:32:37.955Z,12.90
2023-05-14T06:33:38.825Z,12.98
2023-05-14T06:34:38.029Z,13.03
2023-05-14T06:35:37.923Z,13.09
2023-05-14T06:36:37.912Z,13.18
2023-05-14T06:37:37.911Z,13.22
2023-05-14T06:38:37.870Z,13.25
2023-05-14T06:39:37.883Z,13.35
2023-05-14T06:40:37.874Z,13.38
2023-05-14T06:41:37.851Z,13.39
2023-05-14T06:42:37.860Z,13.38
2023-05-14T06:43:37.828Z,13.42
2023-05-14T06:44:37.851Z,13.49
2023-05-14T06:45:37.921Z,13.57
2023-05-14T06:46:37.810Z,13.65
2023-05-14T06:47:37.830Z,13.71
2023-05-14T06:48:37.841Z,13.81
2023-05-14T06:49:37.789Z,13.89
2023-05-14T06:50:37.760Z,13.97
2023-05-14T06:51:37.725Z,14.04
2023-05-14T06:52:37.733Z,14.12
2023-05-14T06:53:37.732Z,14.18
2023-05-14T06:54:37.802Z,14.20
2023-05-14T06:55:37.709Z,14.28
2023-05-14T06:56:37.677Z,14.36
2023-05-14T06:57:40.500Z,14.43
2023-05-14T06:58:37.672Z,14.47
2023-05-14T06:59:37.669Z,14.54
2023-05-14T07:00:37.640Z,14.60
2023-05-14T07:01:37.711Z,14.69
2023-05-14T07:02:37.662Z,14.81
2023-05-14T07:03:37.705Z,14.86
2023-05-14T07:04:37.712Z,14.91
2023-05-14T07:05:37.643Z,15.00
2023-05-14T07:06:37.606Z,15.11
2023-05-14T07:07:37.627Z,15.21
2023-05-14T07:08:37.591Z,15.29
2023-05-14T07:09:37.636Z,15.42
2023-05-14T07:10:37.530Z,15.52
2023-05-14T07:11:37.561Z,15.52
2023-05-14T07:12:38.453Z,15.55
2023-05-14T07:13:37.562Z,15.61
2023-05-14T07:14:37.520Z,15.70
2023-05-14T07:15:37.526Z,15.83
2023-05-14T07:16:37.519Z,15.97
2023-05-14T07:17:37.543Z,16.08
2023-05-14T07:18:37.544Z,16.21
2023-05-14T07:19:37.474Z,16.24
2023-05-14T07:20:37.434Z,16.38
2023-05-14T07:21:37.450Z,16.42
2023-05-14T07:22:37.475Z,16.53
2023-05-14T07:23:37.478Z,16.49
2023-05-14T07:24:37.420Z,16.54
2023-05-14T07:25:37.403Z,16.54
2023-05-14T07:26:37.421Z,16.57
2023-05-14T07:27:37.410Z,16.64
2023-05-14T07:28:37.395Z,16.66
2023-05-14T07:29:37.392Z,16.72
2023-05-14T07:30:37.404Z,16.76
2023-05-14T07:31:37.432Z,16.78
2023-05-14T07:32:37.337Z,16.78
2023-05-14T07:33:37.384Z,16.79
2023-05-14T07:34:37.297Z,16.79
2023-05-14T07:35:37.332Z,16.87
2023-05-14T07:36:38.081Z,16.91
2023-05-14T07:37:37.301Z,17.01
2023-05-14T07:38:37.262Z,17.16
2023-05-14T07:39:37.272Z,17.38
2023-05-14T07:40:37.346Z,17.49
2023-05-14T07:41:37.272Z,17.57
2023-05-14T07:42:37.623Z,17.78
2023-05-14T07:43:37.264Z,17.94
2023-05-14T07:44:37.263Z,18.04
2023-05-14T07:45:37.221Z,18.28
2023-05-14T07:46:37.195Z,18.44
2023-05-14T07:47:37.218Z,18.65
2023-05-14T07:48:37.196Z,18.78
2023-05-14T07:49:37.155Z,18.89
2023-05-14T07:50:37.191Z,19.04
2023-05-14T07:51:37.212Z,19.00
2023-05-14T07:52:37.138Z,18.99
2023-05-14T07:53:37.161Z,19.02
2023-05-14T07:54:37.105Z,19.11
2023-05-14T07:55:37.084Z,19.12
2023-05-14T07:56:37.149Z,19.21
2023-05-14T07:57:37.077Z,19.27
2023-05-14T07:58:37.062Z,19.40
2023-05-14T07:59:37.140Z,19.48
2023-05-14T08:00:37.054Z,19.56
2023-05-14T08:01:39.159Z,19.63
2023-05-14T08:02:37.075Z,19.56
2023-05-14T08:03:37.084Z,19.47
2023-05-14T08:04:37.561Z,19.48
2023-05-14T08:05:36.997Z,19.54
2023-05-14T08:06:37.086Z,19.69
2023-05-14T08:07:36.990Z,19.81
2023-05-14T08:08:37.004Z,19.91
2023-05-14T08:09:36.951Z,19.94
2023-05-14T08:10:36.957Z,19.95
2023-05-14T08:11:36.913Z,19.96
2023-05-14T08:12:36.925Z,19.95
2023-05-14T08:13:36.909Z,19.91
2023-05-14T08:14:36.924Z,19.94
2023-05-14T08:15:36.856Z,19.96
2023-05-14T08:16:36.934Z,20.04
2023-05-14T08:17:36.923Z,20.10
2023-05-14T08:18:36.885Z,20.21
2023-05-14T08:19:36.865Z,20.34
2023-05-14T08:20:36.813Z,20.48
2023-05-14T08:21:36.846Z,20.66
2023-05-14T08:22:36.809Z,20.82
2023-05-14T08:23:36.874Z,21.03
2023-05-14T08:24:36.796Z,21.20
2023-05-14T08:25:36.811Z,21.33
2023-05-14T08:26:36.820Z,21.50
2023-05-14T08:27:36.755Z,21.40
2023-05-14T08:28:36.736Z,21.46
2023-05-14T08:29:36.784Z,21.48
2023-05-14T08:30:36.822Z,21.54
2023-05-14T08:31:36.730Z,21.60
2023-05-14T08:32:37.067Z,21.73
2023-05-14T08:33:36.689Z,21.80
2023-05-14T08:34:36.713Z,21.88
2023-05-14T08:35:36.682Z,21.98
2023-05-14T08:36:36.693Z,21.93
2023-05-14T08:37:36.672Z,21.91
2023-05-14T08:38:36.654Z,21.92
2023-05-14T08:39:36.630Z,21.89
2023-05-14T08:40:36.674Z,21.83
2023-05-14T08:41:36.623Z,21.70
2023-05-14T08:42:36.638Z,21.55
2023-05-14T08:43:36.614Z,21.40
2023-05-14T08:44:36.685Z,21.24
2023-05-14T08:45:36.598Z,21.20
2023-05-14T08:46:36.560Z,21.12
2023-05-14T08:47:36.578Z,21.14
2023-05-14T08:48:40.817Z,21.18
2023-05-14T08:49:36.534Z,21.20
2023-05-14T08:50:36.534Z,21.25
2023-05-14T08:51:37.412Z,21.24
2023-05-14T08:52:36.506Z,21.06
2023-05-14T08:53:36.517Z,20.97
2023-05-14T08:54:36.538Z,21.00
2023-05-14T08:55:36.500Z,21.00
2023-05-14T08:56:36.473Z,21.03
2023-05-14T08:57:36.496Z,21.02
2023-05-14T08:58:36.526Z,21.06
2023-05-14T08:59:36.443Z,21.12
2023-05-14T09:00:36.445Z,21.21
2023-05-14T09:01:36.424Z,21.29
2023-05-14T09:02:36.458Z,21.33
2023-05-14T09:03:36.406Z,21.35
2023-05-14T09:04:36.418Z,21.37
2023-05-14T09:05:36.373Z,21.39
2023-05-14T09:06:36.368Z,21.36
2023-05-14T09:07:36.389Z,21.39
2023-05-14T09:08:36.400Z,21.50
2023-05-14T09:09:36.305Z,21.46
2023-05-14T09:10:36.358Z,21.48
2023-05-14T09:11:36.398Z,21.54
2023-05-14T09:12:36.338Z,21.54
2023-05-14T09:13:36.312Z,21.57
2023-05-14T09:14:36.255Z,21.61
2023-05-14T09:15:36.954Z,21.64
2023-05-14T09:16:36.573Z,21.70
2023-05-14T09:17:36.323Z,21.70
2023-05-14T09:18:36.285Z,21.70
2023-05-14T09:19:36.224Z,21.73
2023-05-14T09:20:36.184Z,21.77
2023-05-14T09:21:36.249Z,21.67
2023-05-14T09:22:36.214Z,21.75
2023-05-14T09:23:36.170Z,21.77
2023-05-14T09:24:36.179Z,21.79
2023-05-14T09:25:36.174Z,21.83
2023-05-14T09:26:36.225Z,21.83
2023-05-14T09:27:36.130Z,21.80
2023-05-14T09:28:36.148Z,21.75
2023-05-14T09:29:36.111Z,21.76
2023-05-14T09:30:36.123Z,21.80
2023-05-14T09:31:36.175Z,21.88
2023-05-14T09:32:36.128Z,21.93
2023-05-14T09:33:36.083Z,22.00
2023-05-14T09:34:36.129Z,22.08
2023-05-14T09:35:36.067Z,22.15
2023-05-14T09:36:36.060Z,22.23
2023-05-14T09:37:36.103Z,22.28
2023-05-14T09:38:36.012Z,22.35
2023-05-14T09:39:35.993Z,22.38
2023-05-14T09:40:36.000Z,22.23
2023-05-14T09:41:36.024Z,22.00
2023-05-14T09:42:35.999Z,21.72
2023-05-14T09:43:35.972Z,21.57
2023-05-14T09:44:35.974Z,21.50
2023-05-14T09:45:35.965Z,21.29
2023-05-14T09:46:35.954Z,21.20
2023-05-14T09:47:36.103Z,21.11
2023-05-14T09:48:35.948Z,21.15
2023-05-14T09:49:35.969Z,21.24
2023-05-14T09:50:35.926Z,21.21
2023-05-14T09:51:35.892Z,21.17
2023-05-14T09:52:35.878Z,21.18
2023-05-14T09:53:35.832Z,21.22
2023-05-14T09:54:35.880Z,21.09
2023-05-14T09:55:35.872Z,21.11
2023-05-14T09:56:35.832Z,21.11
2023-05-14T09:57:35.838Z,21.17
2023-05-14T09:58:35.847Z,21.27
2023-05-14T09:59:35.816Z,21.32
2023-05-14T10:00:36.537Z,21.29
2023-05-14T10:01:35.849Z,21.22
2023-05-14T10:02:35.817Z,21.25
2023-05-14T10:03:35.799Z,21.36
2023-05-14T10:04:36.104Z,21.46
2023-05-14T10:05:35.773Z,21.64
2023-05-14T10:06:35.726Z,21.64
2023-05-14T10:07:35.762Z,21.57
2023-05-14T10:08:35.758Z,21.39
2023-05-14T10:09:35.922Z,21.21
2023-05-14T10:10:35.709Z,21.15
2023-05-14T10:11:35.728Z,21.03
2023-05-14T10:12:35.668Z,20.95
2023-05-14T10:13:35.673Z,20.92
2023-05-14T10:14:35.676Z,20.93
2023-05-14T10:15:35.674Z,20.96
2023-05-14T10:16:35.764Z,21.00
2023-05-14T10:17:35.827Z,21.09
2023-05-14T10:18:35.733Z,21.18
2023-05-14T10:19:35.591Z,21.14
2023-05-14T10:20:35.585Z,21.14
2023-05-14T10:21:35.605Z,21.20
2023-05-14T10:22:35.562Z,21.22
2023-05-14T10:23:35.583Z,21.27
2023-05-14T10:24:35.613Z,21.25
2023-05-14T10:25:35.567Z,21.21
2023-05-14T10:26:35.559Z,21.25
2023-05-14T10:27:35.527Z,21.17
2023-05-14T10:28:35.548Z,21.20
2023-05-14T10:29:36.090Z,21.18
2023-05-14T10:30:35.561Z,21.27
2023-05-14T10:31:35.572Z,21.27
2023-05-14T10:32:35.502Z,21.32
2023-05-14T10:33:35.525Z,21.35
2023-05-14T10:34:35.437Z,21.32
2023-05-14T10:35:35.456Z,21.32
2023-05-14T10:36:35.541Z,21.33
2023-05-14T10:37:35.414Z,21.33
2023-05-14T10:38:35.469Z,21.35
2023-05-14T10:39:35.440Z,21.32
2023-05-14T10:40:35.400Z,21.36
2023-05-14T10:41:35.383Z,21.39
2023-05-14T10:42:35.398Z,21.30
2023-05-14T10:43:35.330Z,21.30
2023-05-14T10:44:35.392Z,21.27
2023-05-14T10:45:35.367Z,21.35
2023-05-14T10:46:35.363Z,21.35
2023-05-14T10:47:35.355Z,21.42
2023-05-14T10:48:35.308Z,21.39
2023-05-14T10:49:42.770Z,21.42
2023-05-14T10:50:35.309Z,21.48
2023-05-14T10:51:35.405Z,21.50
2023-05-14T10:52:35.304Z,21.57
2023-05-14T10:53:35.274Z,21.57
2023-05-14T10:54:35.245Z,21.48
2023-05-14T10:55:35.247Z,21.46
2023-05-14T10:56:35.217Z,21.52
2023-05-14T10:57:35.212Z,21.66
2023-05-14T10:58:35.258Z,21.69
2023-05-14T10:59:35.228Z,21.82
2023-05-14T11:00:35.180Z,21.79
2023-05-14T11:01:35.246Z,21.85
2023-05-14T11:02:35.213Z,21.88
2023-05-14T11:03:35.495Z,21.80
2023-05-14T11:04:35.177Z,21.80
2023-05-14T11:05:35.137Z,21.83
2023-05-14T11:06:35.108Z,21.88
2023-05-14T11:07:35.145Z,21.76
2023-05-14T11:08:35.125Z,21.75
2023-05-14T11:09:35.093Z,21.72
2023-05-14T11:10:35.153Z,21.67
2023-05-14T11:11:35.047Z,21.62
2023-05-14T11:12:35.091Z,21.70
2023-05-14T11:13:35.350Z,21.66
2023-05-14T11:14:35.042Z,21.75
2023-05-14T11:15:35.011Z,21.80
2023-05-14T11:16:35.076Z,21.96
2023-05-14T11:17:35.051Z,22.10
2023-05-14T11:18:35.014Z,22.26
2023-05-14T11:19:34.976Z,22.41
2023-05-14T11:20:35.614Z,22.54
2023-05-14T11:21:35.104Z,22.62
2023-05-14T11:22:34.978Z,22.62
2023-05-14T11:23:34.955Z,22.62
2023-05-14T11:24:34.925Z,22.41
2023-05-14T11:25:34.954Z,22.47
2023-05-14T11:26:35.072Z,22.43
2023-05-14T11:27:34.909Z,22.53
2023-05-14T11:28:34.893Z,22.60
2023-05-14T11:29:34.893Z,22.59
2023-05-14T11:30:34.888Z,22.57
2023-05-14T11:31:34.991Z,22.51
2023-05-14T11:32:34.891Z,22.50
2023-05-14T11:33:34.913Z,22.50
2023-05-14T11:34:34.865Z,22.48
2023-05-14T11:35:34.835Z,22.45
2023-05-14T11:36:34.842Z,22.43
2023-05-14T11:37:34.791Z,22.44
2023-05-14T11:38:34.784Z,22.43
2023-05-14T11:39:34.799Z,22.51
2023-05-14T11:40:35.664Z,22.72
2023-05-14T11:41:34.842Z,22.94
2023-05-14T11:42:34.747Z,22.93
2023-05-14T11:43:34.753Z,22.99
2023-05-14T11:44:34.732Z,23.06
2023-05-14T11:45:34.722Z,23.27
2023-05-14T11:46:34.752Z,23.61
2023-05-14T11:47:34.694Z,23.87
2023-05-14T11:48:34.733Z,24.06
2023-05-14T11:49:34.684Z,24.11
2023-05-14T11:50:34.719Z,24.02
2023-05-14T11:51:34.712Z,24.11
2023-05-14T11:52:34.651Z,24.21
2023-05-14T11:53:34.720Z,24.28
2023-05-14T11:54:34.619Z,24.30
2023-05-14T11:55:34.613Z,24.24
2023-05-14T11:56:34.628Z,23.96
2023-05-14T11:57:34.584Z,23.87
2023-05-14T11:58:34.586Z,23.68
2023-05-14T11:59:34.553Z,23.54
2023-05-14T12:00:34.603Z,23.50
2023-05-14T12:01:34.560Z,23.68
2023-05-14T12:02:34.701Z,23.87
2023-05-14T12:03:34.742Z,23.92
2023-05-14T12:04:34.583Z,23.83
2023-05-14T12:05:34.502Z,23.71
2023-05-14T12:06:34.538Z,23.55
2023-05-14T12:07:34.508Z,23.34
2023-05-14T12:08:34.483Z,22.94
2023-05-14T12:09:34.463Z,22.55
2023-05-14T12:10:34.447Z,22.33
2023-05-14T12:11:34.482Z,22.10
2023-05-14T12:12:34.425Z,21.99
2023-05-14T12:13:34.432Z,21.83
2023-05-14T12:14:34.422Z,21.77
2023-05-14T12:15:34.399Z,21.64
2023-05-14T12:16:36.223Z,21.58
2023-05-14T12:17:34.408Z,21.42
2023-05-14T12:18:34.506Z,21.32
2023-05-14T12:19:34.449Z,21.21
2023-05-14T12:20:34.382Z,21.09
2023-05-14T12:21:34.366Z,21.02
2023-05-14T12:22:36.405Z,21.02
2023-05-14T12:23:34.327Z,21.00
2023-05-14T12:24:34.352Z,21.00
2023-05-14T12:25:34.316Z,21.02
2023-05-14T12:26:34.298Z,21.03
2023-05-14T12:27:34.308Z,20.97
2023-05-14T12:28:36.941Z,20.95
2023-05-14T12:29:34.263Z,20.97
2023-05-14T12:30:34.340Z,20.99
2023-05-14T12:31:34.303Z,21.05
2023-05-14T12:32:34.328Z,21.03
2023-05-14T12:33:34.381Z,21.02
2023-05-14T12:34:36.563Z,21.03
2023-05-14T12:35:34.196Z,21.03
2023-05-14T12:36:34.212Z,21.06
2023-05-14T12:37:34.189Z,21.06
2023-05-14T12:38:34.181Z,21.03
2023-05-14T12:39:34.150Z,21.09
2023-05-14T12:40:34.159Z,21.25
2023-05-14T12:41:34.151Z,21.40
2023-05-14T12:42:34.149Z,21.62
2023-05-14T12:43:34.123Z,21.79
2023-05-14T12:44:34.113Z,21.93
2023-05-14T12:45:34.080Z,22.06
2023-05-14T12:46:34.139Z,22.14
2023-05-14T12:47:34.198Z,22.18
2023-05-14T12:48:34.093Z,22.20
2023-05-14T12:49:34.051Z,22.30
2023-05-14T12:50:34.063Z,22.30
2023-05-14T12:51:34.093Z,22.28
2023-05-14T12:52:38.639Z,22.29
2023-05-14T12:53:34.032Z,22.14
2023-05-14T12:54:34.036Z,22.06
2023-05-14T12:55:34.020Z,21.98
2023-05-14T12:56:34.061Z,21.80
2023-05-14T12:57:34.029Z,21.80
2023-05-14T12:58:34.700Z,21.82
2023-05-14T12:59:33.963Z,21.75
2023-05-14T13:00:34.125Z,21.75
2023-05-14T13:01:34.078Z,21.77